Maersk Shenzhen — D5LD3 — position and weather

sailwx.info

Track history (hours):
 
Tides and Currents Weather Stations Pressure Air Temp Water Temp Dewpoint Dewpoint Depression Visibility Wind Speed Wind Dir Waves Ship Positions

Maersk Shenzhen

Last reported at 2018-Apr-23 13:26 UTC. Time now 2018-Apr-26 23:01 UTC.
Position N 01°32' E 104°36'.

Length 324 m; draft 10 m.

Type: Cargo ship. MMSI: 636017474.

Date/timePositionNaut miles runAvg speedWind from/ knotsBaromVisibWave heightAir tempDewpointWater temp
2018-Apr-23 13:26N 01°32' E 104°36'612.7
2018-Apr-23 12:58N 01°28' E 104°32'815.8
2018-Apr-23 12:28N 01°23' E 104°26'715.0
2018-Apr-23 11:59N 01°18' E 104°21'714.3
2018-Apr-23 11:30N 01°16' E 104°14'814.9
2018-Apr-23 11:00N 01°15' E 104°07'714.2
2018-Apr-23 10:30N 01°14' E 103°60'713.5
2018-Apr-23 09:59N 01°12' E 103°53'5 9.5
2018-Apr-23 09:30N 01°12' E 103°49'4 8.8
2018-Apr-23 09:00N 01°16' E 103°46'1 2.0
2018-Apr-23 08:27N 01°17' E 103°45'0 0.0
2018-Apr-23 07:45N 01°17' E 103°45'0 0.0
2018-Apr-23 07:30N 01°17' E 103°45'0 0.0
2018-Apr-23 06:56N 01°17' E 103°45'0 0.0
2018-Apr-23 06:24N 01°17' E 103°45'0 0.0
2018-Apr-23 05:54N 01°17' E 103°45'0 0.0
2018-Apr-23 05:30N 01°17' E 103°45'0 0.0
2018-Apr-23 04:59N 01°17' E 103°45'0 0.0
2018-Apr-23 04:27N 01°17' E 103°45'0 0.0
2018-Apr-23 03:54N 01°17' E 103°45'0 0.0
2018-Apr-23 03:30N 01°17' E 103°45'0 0.0
2018-Apr-23 02:59N 01°17' E 103°45'0 0.0
2018-Apr-23 02:30N 01°17' E 103°45'0 0.0
2018-Apr-23 01:57N 01°17' E 103°45'0 0.0
2018-Apr-23 01:29N 01°17' E 103°45'0 0.0
2018-Apr-23 00:56N 01°17' E 103°45'0 0.0
2018-Apr-23 00:29N 01°17' E 103°45'0 0.0
2018-Apr-22 23:59N 01°17' E 103°45'0 0.0
2018-Apr-22 23:29N 01°17' E 103°45'0 0.0
2018-Apr-22 22:59N 01°17' E 103°45'0 0.0
2018-Apr-22 22:29N 01°17' E 103°45'0 0.0
2018-Apr-22 21:59N 01°17' E 103°45'0 0.0
2018-Apr-22 21:29N 01°17' E 103°45'0 0.0
2018-Apr-22 20:59N 01°17' E 103°45'0 0.0
2018-Apr-22 20:26N 01°17' E 103°45'0 0.0
2018-Apr-22 19:59N 01°17' E 103°45'0 0.0
2018-Apr-22 19:29N 01°17' E 103°45'0 0.0
2018-Apr-22 18:59N 01°17' E 103°45'0 0.0
2018-Apr-22 18:29N 01°17' E 103°45'0 0.0
2018-Apr-22 17:59N 01°17' E 103°45'0 0.0
2018-Apr-22 17:29N 01°17' E 103°45'0 0.0
2018-Apr-22 16:59N 01°17' E 103°45'0 0.0
2018-Apr-22 16:29N 01°17' E 103°45'0 0.0
2018-Apr-22 15:59N 01°17' E 103°45'0 0.0
2018-Apr-22 15:26N 01°17' E 103°45'0 0.0
2018-Apr-22 14:59N 01°17' E 103°45'0 0.0
2018-Apr-22 14:29N 01°17' E 103°45'0 0.0
2018-Apr-22 13:59N 01°17' E 103°45'0 0.0
2018-Apr-22 13:29N 01°17' E 103°45'0 0.0
2018-Apr-22 12:59N 01°17' E 103°45'0 0.0
2018-Apr-22 12:29N 01°17' E 103°45'0 0.0
2018-Apr-22 11:59N 01°17' E 103°45'0 0.0
2018-Apr-22 11:29N 01°17' E 103°45'0 0.0
2018-Apr-22 10:59N 01°17' E 103°45'0 0.0
2018-Apr-22 10:29N 01°17' E 103°45'0 0.0
2018-Apr-22 09:59N 01°17' E 103°45'0 0.0
2018-Apr-22 09:29N 01°17' E 103°45'0 0.0
2018-Apr-22 08:59N 01°17' E 103°45'0 0.0
2018-Apr-22 08:29N 01°17' E 103°45'0 0.0
2018-Apr-22 07:59N 01°17' E 103°45'0 0.2
2018-Apr-22 07:30N 01°17' E 103°45'1 2.8
2018-Apr-22 07:00N 01°15' E 103°46'4 7.2
2018-Apr-22 06:30N 01°14' E 103°43'510.0
2018-Apr-22 05:59N 01°12' E 103°38'3 5.0
2018-Apr-22 05:29N 01°12' E 103°36'3 5.9
2018-Apr-22 04:58N 01°10' E 103°33'3 5.5
2018-Apr-22 04:29N 01°09' E 103°31'3 5.8
2018-Apr-22 04:00N 01°10' E 103°28'4 8.7
2018-Apr-22 03:29N 01°13' E 103°24'4 8.5
2018-Apr-22 03:00N 01°15' E 103°21'  
Track history (hours):
 
Tides and Currents Weather Stations Pressure Air Temp Water Temp Dewpoint Dewpoint Depression Visibility Wind Speed Wind Dir Waves Ship Positions

Maersk Shenzhen

Last reported at 2018-Apr-23 13:26 UTC. Time now 2018-Apr-26 23:01 UTC.
Position N 01°32' E 104°36'.

Length 324 m; draft 10 m.

Type: Cargo ship. MMSI: 636017474.

Date/timePositionNaut miles runAvg speedWind from/ knotsBaromVisibWave heightAir tempDewpointWater temp
2018-Apr-23 13:26N 01°32' E 104°36'612.7
2018-Apr-23 12:58N 01°28' E 104°32'815.8
2018-Apr-23 12:28N 01°23' E 104°26'715.0
2018-Apr-23 11:59N 01°18' E 104°21'714.3
2018-Apr-23 11:30N 01°16' E 104°14'814.9
2018-Apr-23 11:00N 01°15' E 104°07'714.2
2018-Apr-23 10:30N 01°14' E 103°60'713.5
2018-Apr-23 09:59N 01°12' E 103°53'5 9.5
2018-Apr-23 09:30N 01°12' E 103°49'4 8.8
2018-Apr-23 09:00N 01°16' E 103°46'1 2.0
2018-Apr-23 08:27N 01°17' E 103°45'0 0.0
2018-Apr-23 07:45N 01°17' E 103°45'0 0.0
2018-Apr-23 07:30N 01°17' E 103°45'0 0.0
2018-Apr-23 06:56N 01°17' E 103°45'0 0.0
2018-Apr-23 06:24N 01°17' E 103°45'0 0.0
2018-Apr-23 05:54N 01°17' E 103°45'0 0.0
2018-Apr-23 05:30N 01°17' E 103°45'0 0.0
2018-Apr-23 04:59N 01°17' E 103°45'0 0.0
2018-Apr-23 04:27N 01°17' E 103°45'0 0.0
2018-Apr-23 03:54N 01°17' E 103°45'0 0.0
2018-Apr-23 03:30N 01°17' E 103°45'0 0.0
2018-Apr-23 02:59N 01°17' E 103°45'0 0.0
2018-Apr-23 02:30N 01°17' E 103°45'0 0.0
2018-Apr-23 01:57N 01°17' E 103°45'0 0.0
2018-Apr-23 01:29N 01°17' E 103°45'0 0.0
2018-Apr-23 00:56N 01°17' E 103°45'0 0.0
2018-Apr-23 00:29N 01°17' E 103°45'0 0.0
2018-Apr-22 23:59N 01°17' E 103°45'0 0.0
2018-Apr-22 23:29N 01°17' E 103°45'0 0.0
2018-Apr-22 22:59N 01°17' E 103°45'0 0.0
2018-Apr-22 22:29N 01°17' E 103°45'0 0.0
2018-Apr-22 21:59N 01°17' E 103°45'0 0.0
2018-Apr-22 21:29N 01°17' E 103°45'0 0.0
2018-Apr-22 20:59N 01°17' E 103°45'0 0.0
2018-Apr-22 20:26N 01°17' E 103°45'0 0.0
2018-Apr-22 19:59N 01°17' E 103°45'0 0.0
2018-Apr-22 19:29N 01°17' E 103°45'0 0.0
2018-Apr-22 18:59N 01°17' E 103°45'0 0.0
2018-Apr-22 18:29N 01°17' E 103°45'0 0.0
2018-Apr-22 17:59N 01°17' E 103°45'0 0.0
2018-Apr-22 17:29N 01°17' E 103°45'0 0.0
2018-Apr-22 16:59N 01°17' E 103°45'0 0.0
2018-Apr-22 16:29N 01°17' E 103°45'0 0.0
2018-Apr-22 15:59N 01°17' E 103°45'0 0.0
2018-Apr-22 15:26N 01°17' E 103°45'0 0.0
2018-Apr-22 14:59N 01°17' E 103°45'0 0.0
2018-Apr-22 14:29N 01°17' E 103°45'0 0.0
2018-Apr-22 13:59N 01°17' E 103°45'0 0.0
2018-Apr-22 13:29N 01°17' E 103°45'0 0.0
2018-Apr-22 12:59N 01°17' E 103°45'0 0.0
2018-Apr-22 12:29N 01°17' E 103°45'0 0.0
2018-Apr-22 11:59N 01°17' E 103°45'0 0.0
2018-Apr-22 11:29N 01°17' E 103°45'0 0.0
2018-Apr-22 10:59N 01°17' E 103°45'0 0.0
2018-Apr-22 10:29N 01°17' E 103°45'0 0.0
2018-Apr-22 09:59N 01°17' E 103°45'0 0.0
2018-Apr-22 09:29N 01°17' E 103°45'0 0.0
2018-Apr-22 08:59N 01°17' E 103°45'0 0.0
2018-Apr-22 08:29N 01°17' E 103°45'0 0.0
2018-Apr-22 07:59N 01°17' E 103°45'0 0.2
2018-Apr-22 07:30N 01°17' E 103°45'1 2.8
2018-Apr-22 07:00N 01°15' E 103°46'4 7.2
2018-Apr-22 06:30N 01°14' E 103°43'510.0
2018-Apr-22 05:59N 01°12' E 103°38'3 5.0
2018-Apr-22 05:29N 01°12' E 103°36'3 5.9
2018-Apr-22 04:58N 01°10' E 103°33'3 5.5
2018-Apr-22 04:29N 01°09' E 103°31'3 5.8
2018-Apr-22 04:00N 01°10' E 103°28'4 8.7
2018-Apr-22 03:29N 01°13' E 103°24'4 8.5
2018-Apr-22 03:00N 01°15' E 103°21'  

Dump ship's entire track history